createdAt,value
2022-10-11T00:00:44.613Z,10.82
2022-10-11T00:03:11.277Z,13.23
2022-10-11T00:05:38.250Z,16.55
2022-10-11T00:08:06.498Z,8.48
2022-10-11T00:10:33.897Z,10.95
2022-10-11T00:13:01.064Z,10.00
2022-10-11T00:15:27.972Z,8.45
2022-10-11T00:17:54.696Z,9.35
2022-10-11T00:20:21.277Z,9.80
2022-10-11T00:22:49.281Z,8.25
2022-10-11T00:25:17.292Z,6.68
2022-10-11T00:27:43.942Z,7.75
2022-10-11T00:30:11.590Z,5.93
2022-10-11T00:32:39.241Z,8.18
2022-10-11T00:35:07.091Z,7.80
2022-10-11T00:37:38.646Z,4.07
2022-10-11T00:40:13.329Z,9.25
2022-10-11T00:42:40.200Z,7.32
2022-10-11T00:45:31.474Z,4.90
2022-10-11T00:48:10.007Z,6.68
2022-10-11T00:50:37.449Z,7.43
2022-10-11T00:53:11.233Z,7.35
2022-10-11T00:55:48.089Z,8.25
2022-10-11T00:58:15.311Z,3.63
2022-10-11T01:00:42.585Z,9.90
2022-10-11T01:03:09.309Z,4.00
2022-10-11T01:05:38.889Z,5.97
2022-10-11T01:08:07.601Z,4.57
2022-10-11T01:10:34.277Z,9.60
2022-10-11T01:13:26.357Z,4.65
2022-10-11T01:16:27.455Z,6.40
2022-10-11T01:19:14.254Z,6.80
2022-10-11T01:22:41.273Z,5.20
2022-10-11T01:25:26.210Z,10.48
2022-10-11T01:28:49.344Z,7.00
2022-10-11T01:31:28.981Z,5.80
2022-10-11T01:34:23.369Z,4.20
2022-10-11T01:37:10.502Z,3.97
2022-10-11T01:39:48.233Z,10.85
2022-10-11T01:42:17.861Z,8.35
2022-10-11T01:44:48.162Z,8.02
2022-10-11T01:47:23.230Z,5.35
2022-10-11T01:50:00.182Z,10.75
2022-10-11T01:52:31.454Z,8.10
2022-10-11T01:55:37.610Z,13.40
2022-10-11T01:58:31.621Z,9.35
2022-10-11T02:01:27.092Z,5.47
2022-10-11T02:04:17.756Z,7.68
2022-10-11T02:06:57.743Z,6.35
2022-10-11T02:09:31.476Z,5.72
2022-10-11T02:12:05.645Z,7.07
2022-10-11T02:14:44.026Z,8.85
2022-10-11T02:17:22.494Z,9.13
2022-10-11T02:19:53.565Z,12.70
2022-10-11T02:22:37.766Z,7.40
2022-10-11T02:25:10.306Z,10.10
2022-10-11T02:27:40.547Z,11.63
2022-10-11T02:30:09.486Z,14.27
2022-10-11T02:32:40.209Z,7.82
2022-10-11T02:35:08.214Z,15.07
2022-10-11T02:38:05.961Z,15.85
2022-10-11T02:40:35.750Z,9.60
2022-10-11T02:43:10.990Z,11.27
2022-10-11T02:45:45.193Z,12.07
2022-10-11T02:48:12.646Z,13.48
2022-10-11T02:50:40.301Z,8.38
2022-10-11T02:53:07.999Z,11.88
2022-10-11T02:55:34.987Z,8.23
2022-10-11T02:58:01.907Z,7.60
2022-10-11T03:00:28.950Z,8.43
2022-10-11T03:02:55.583Z,8.48
2022-10-11T03:05:22.230Z,9.50
2022-10-11T03:07:48.810Z,8.32
2022-10-11T03:10:15.551Z,7.45
2022-10-11T03:12:42.174Z,10.38
2022-10-11T03:15:09.418Z,6.57
2022-10-11T03:17:37.171Z,13.52
2022-10-11T03:20:06.323Z,5.68
2022-10-11T03:22:32.915Z,8.45
2022-10-11T03:25:03.678Z,8.00
2022-10-11T03:27:31.422Z,6.30
2022-10-11T03:29:58.903Z,11.10
2022-10-11T03:32:25.665Z,15.13
2022-10-11T03:34:52.335Z,13.95
2022-10-11T03:37:18.920Z,9.25
2022-10-11T03:39:45.791Z,11.52
2022-10-11T03:42:13.350Z,6.72
2022-10-11T03:44:41.529Z,6.10
2022-10-11T03:47:12.966Z,10.73
2022-10-11T03:49:43.482Z,8.45
2022-10-11T03:52:12.158Z,12.43
2022-10-11T03:54:38.701Z,10.02
2022-10-11T03:57:08.014Z,10.15
2022-10-11T03:59:34.639Z,7.10
2022-10-11T04:02:01.398Z,14.40
2022-10-11T04:04:28.034Z,6.88
2022-10-11T04:06:54.598Z,7.18
2022-10-11T04:09:21.203Z,7.70
2022-10-11T04:11:47.785Z,5.78
2022-10-11T04:14:14.531Z,9.48
2022-10-11T04:16:41.214Z,7.75
2022-10-11T04:19:09.578Z,7.25
2022-10-11T04:21:36.375Z,11.48
2022-10-11T04:24:03.104Z,16.35
2022-10-11T04:26:29.698Z,27.70
2022-10-11T04:28:56.340Z,24.88
2022-10-11T04:31:23.711Z,19.83
2022-10-11T04:33:50.416Z,15.50
2022-10-11T04:36:16.975Z,9.40
2022-10-11T04:38:43.529Z,14.27
2022-10-11T04:41:13.538Z,12.20
2022-10-11T04:43:40.311Z,11.25
2022-10-11T04:46:08.534Z,10.18
2022-10-11T04:48:37.928Z,11.57
2022-10-11T04:51:06.127Z,11.32
2022-10-11T04:53:32.722Z,6.25
2022-10-11T04:56:06.030Z,11.57
2022-10-11T04:58:35.014Z,7.32
2022-10-11T05:01:01.623Z,19.52
2022-10-11T05:03:31.118Z,9.05
2022-10-11T05:06:04.660Z,9.95
2022-10-11T05:08:32.144Z,10.10
2022-10-11T05:11:05.423Z,5.35
2022-10-11T05:13:34.150Z,12.85
2022-10-11T05:16:03.306Z,10.25
2022-10-11T05:18:31.911Z,12.88
2022-10-11T05:21:03.856Z,10.30
2022-10-11T05:23:32.319Z,10.10
2022-10-11T05:25:59.991Z,11.82
2022-10-11T05:28:27.342Z,13.73
2022-10-11T05:30:54.630Z,10.38
2022-10-11T05:33:22.400Z,8.90
2022-10-11T05:35:49.316Z,12.93
2022-10-11T05:38:16.361Z,8.35
2022-10-11T05:40:43.383Z,10.30
2022-10-11T05:43:10.410Z,4.72
2022-10-11T05:45:39.229Z,8.73
2022-10-11T05:48:06.406Z,7.10
2022-10-11T05:50:33.313Z,7.90
2022-10-11T05:52:59.949Z,13.27
2022-10-11T05:55:26.593Z,12.75
2022-10-11T05:57:55.710Z,13.30
2022-10-11T06:00:25.330Z,8.15
2022-10-11T06:02:51.966Z,7.18
2022-10-11T06:05:18.617Z,7.72
2022-10-11T06:07:45.325Z,10.70
2022-10-11T06:10:12.084Z,11.52
2022-10-11T06:12:38.776Z,11.32
2022-10-11T06:15:06.682Z,8.98
2022-10-11T06:17:33.333Z,10.23
2022-10-11T06:19:59.902Z,10.38
2022-10-11T06:22:26.660Z,6.18
2022-10-11T06:24:53.224Z,9.35
2022-10-11T06:27:19.782Z,12.35
2022-10-11T06:29:46.349Z,4.05
2022-10-11T06:32:15.853Z,4.20
2022-10-11T06:34:42.432Z,5.85
2022-10-11T06:37:09.050Z,10.40
2022-10-11T06:39:35.610Z,12.13
2022-10-11T06:42:02.281Z,4.63
2022-10-11T06:44:29.233Z,8.35
2022-10-11T06:46:55.807Z,10.25
2022-10-11T06:49:23.631Z,13.82
2022-10-11T06:51:50.959Z,6.68
2022-10-11T06:54:17.674Z,23.50
2022-10-11T06:56:45.544Z,9.35
2022-10-11T06:59:13.294Z,13.05
2022-10-11T07:01:40.100Z,4.85
2022-10-11T07:04:07.082Z,7.55
2022-10-11T07:06:38.441Z,6.63
2022-10-11T07:09:06.434Z,10.18
2022-10-11T07:11:34.010Z,12.02
2022-10-11T07:14:07.459Z,14.15
2022-10-11T07:16:36.178Z,13.60
2022-10-11T07:19:05.758Z,10.68
2022-10-11T07:21:34.700Z,6.35
2022-10-11T07:24:01.933Z,9.02
2022-10-11T07:26:33.761Z,13.50
2022-10-11T07:29:04.421Z,16.83
2022-10-11T07:31:31.157Z,13.23
2022-10-11T07:33:57.791Z,14.80
2022-10-11T07:36:25.429Z,17.10
2022-10-11T07:38:52.100Z,8.23
2022-10-11T07:41:19.604Z,13.95
2022-10-11T07:43:47.850Z,16.52
2022-10-11T07:46:14.503Z,9.20
2022-10-11T07:48:41.712Z,14.13
2022-10-11T07:51:18.297Z,12.70
2022-10-11T07:53:55.325Z,11.80
2022-10-11T07:56:28.041Z,13.45
2022-10-11T07:58:57.776Z,15.02
2022-10-11T08:01:26.063Z,13.18
2022-10-11T08:03:53.683Z,11.07
2022-10-11T08:06:26.039Z,13.52
2022-10-11T08:08:53.137Z,12.20
2022-10-11T08:11:32.855Z,12.52
2022-10-11T08:14:00.279Z,10.82
2022-10-11T08:16:28.839Z,9.45
2022-10-11T08:18:56.757Z,6.85
2022-10-11T08:21:23.964Z,6.50
2022-10-11T08:23:50.543Z,7.30
2022-10-11T08:26:17.234Z,11.93
2022-10-11T08:28:44.004Z,6.35
2022-10-11T08:31:15.567Z,9.98
2022-10-11T08:33:42.446Z,7.90
2022-10-11T08:36:10.201Z,9.60
2022-10-11T08:38:38.934Z,8.70
2022-10-11T08:41:27.926Z,8.70
2022-10-11T08:47:43.091Z,9.48
2022-10-11T08:50:20.289Z,9.15
2022-10-11T08:53:16.104Z,9.25
2022-10-11T08:55:50.871Z,10.65
2022-10-11T08:58:22.497Z,11.63
2022-10-11T09:00:54.978Z,9.48
2022-10-11T09:03:43.174Z,12.77
2022-10-11T09:06:49.962Z,13.75
2022-10-11T09:09:50.911Z,8.95
2022-10-11T09:12:40.920Z,8.65
2022-10-11T09:15:46.757Z,10.75
2022-10-11T09:19:02.899Z,16.38
2022-10-11T09:21:48.987Z,13.68
2022-10-11T09:25:06.999Z,12.45
2022-10-11T09:28:01.916Z,13.50
2022-10-11T09:30:27.592Z,20.52
2022-10-11T09:33:19.914Z,15.85
2022-10-11T09:35:50.571Z,12.35
2022-10-11T09:39:07.462Z,10.70
2022-10-11T09:41:59.020Z,12.32
2022-10-11T09:44:34.735Z,14.02
2022-10-11T09:47:01.425Z,11.25
2022-10-11T09:49:36.424Z,8.73
2022-10-11T09:52:07.636Z,15.57
2022-10-11T09:54:45.170Z,10.15
2022-10-11T09:57:30.508Z,9.07
2022-10-11T10:00:23.391Z,7.65
2022-10-11T10:02:59.136Z,13.73
2022-10-11T10:05:29.536Z,12.02
2022-10-11T10:08:11.462Z,10.85
2022-10-11T10:10:59.632Z,11.73
2022-10-11T10:13:43.331Z,11.70
2022-10-11T10:16:29.535Z,11.27
2022-10-11T10:19:21.343Z,13.52
2022-10-11T10:21:54.927Z,9.05
2022-10-11T10:24:33.787Z,10.32
2022-10-11T10:27:29.351Z,12.05
2022-10-11T10:30:08.086Z,9.65
2022-10-11T10:33:01.000Z,11.13
2022-10-11T10:35:36.807Z,11.88
2022-10-11T10:38:40.739Z,9.90
2022-10-11T10:41:13.706Z,12.95
2022-10-11T10:43:45.688Z,12.40
2022-10-11T10:46:38.839Z,12.68
2022-10-11T10:49:55.473Z,12.85
2022-10-11T10:52:50.227Z,10.35
2022-10-11T10:55:44.442Z,12.02
2022-10-11T10:58:59.090Z,13.18
2022-10-11T11:01:56.367Z,11.63
2022-10-11T11:04:33.342Z,9.43
2022-10-11T11:07:33.473Z,6.53
2022-10-11T11:10:13.453Z,12.98
2022-10-11T11:13:03.045Z,7.50
2022-10-11T11:16:07.119Z,8.77
2022-10-11T11:19:18.249Z,6.43
2022-10-11T11:21:59.933Z,13.63
2022-10-11T11:25:07.109Z,10.18
2022-10-11T11:27:48.677Z,10.40
2022-10-11T11:30:50.921Z,11.77
2022-10-11T11:33:48.519Z,10.90
2022-10-11T11:36:27.585Z,8.73
2022-10-11T11:38:59.870Z,6.25
2022-10-11T11:41:36.050Z,10.65
2022-10-11T11:44:17.882Z,7.63
2022-10-11T11:47:11.670Z,14.05
2022-10-11T11:50:03.893Z,9.13
2022-10-11T11:52:44.705Z,14.88
2022-10-11T11:55:19.318Z,9.77
2022-10-11T11:58:25.119Z,10.63
2022-10-11T12:01:14.988Z,13.13
2022-10-11T12:03:47.734Z,9.65
2022-10-11T12:06:16.911Z,12.73
2022-10-11T12:08:48.577Z,10.63
2022-10-11T12:11:37.046Z,10.50
2022-10-11T12:14:33.073Z,7.93
2022-10-11T12:17:22.623Z,7.05
2022-10-11T12:20:15.271Z,6.72
2022-10-11T12:22:53.638Z,6.55
2022-10-11T12:25:23.281Z,9.40
2022-10-11T12:27:56.357Z,12.50
2022-10-11T12:30:47.931Z,9.07
2022-10-11T12:33:21.349Z,8.85
2022-10-11T12:35:53.889Z,9.43
2022-10-11T12:38:37.709Z,9.45
2022-10-11T12:41:10.173Z,8.43
2022-10-11T12:44:18.336Z,6.30
2022-10-11T12:46:51.341Z,7.47
2022-10-11T12:49:40.593Z,6.43
2022-10-11T12:52:16.241Z,5.25
2022-10-11T12:55:04.372Z,10.55
2022-10-11T12:58:08.591Z,9.98
2022-10-11T13:01:05.003Z,7.38
2022-10-11T13:04:05.069Z,9.80
2022-10-11T13:06:47.648Z,9.00
2022-10-11T13:09:25.068Z,8.63
2022-10-11T13:12:02.317Z,7.40
2022-10-11T13:14:38.457Z,9.23
2022-10-11T13:17:26.648Z,9.18
2022-10-11T13:20:05.432Z,5.03
2022-10-11T13:22:34.981Z,9.32
2022-10-11T13:25:05.957Z,8.70
2022-10-11T13:27:32.629Z,15.43
2022-10-11T13:30:02.301Z,7.13
2022-10-11T13:32:32.053Z,6.70
2022-10-11T13:35:05.660Z,12.02
2022-10-11T13:37:42.423Z,7.13
2022-10-11T13:40:19.177Z,12.20
2022-10-11T13:42:48.552Z,8.90
2022-10-11T13:45:20.343Z,7.07
2022-10-11T13:47:49.183Z,5.70
2022-10-11T13:50:15.949Z,5.60
2022-10-11T13:53:09.234Z,7.50
2022-10-11T13:56:00.300Z,8.70
2022-10-11T13:58:35.497Z,6.57
2022-10-11T14:01:26.924Z,10.32
2022-10-11T14:04:07.097Z,8.85
2022-10-11T14:06:48.167Z,10.85
2022-10-11T14:09:26.805Z,7.10
2022-10-11T14:11:54.337Z,8.30
2022-10-11T14:14:32.782Z,8.90
2022-10-11T14:17:12.165Z,10.95
2022-10-11T14:19:39.470Z,7.57
2022-10-11T14:22:13.778Z,11.95
2022-10-11T14:24:40.973Z,7.53
2022-10-11T14:27:19.214Z,9.82
2022-10-11T14:30:00.441Z,10.30
2022-10-11T14:32:35.121Z,9.07
2022-10-11T14:35:02.245Z,10.02
2022-10-11T14:37:28.857Z,7.20
2022-10-11T14:39:55.437Z,6.93
2022-10-11T14:42:22.065Z,6.93
2022-10-11T14:44:48.668Z,8.25
2022-10-11T14:47:17.269Z,9.05
2022-10-11T14:49:44.760Z,8.05
2022-10-11T14:52:13.278Z,7.13
2022-10-11T14:54:40.658Z,8.45
2022-10-11T14:57:07.269Z,7.78
2022-10-11T14:59:37.588Z,9.68
2022-10-11T15:02:08.100Z,6.95
2022-10-11T15:04:35.919Z,6.80
2022-10-11T15:07:03.955Z,9.25
2022-10-11T15:09:31.071Z,9.15
2022-10-11T15:11:58.602Z,9.07
2022-10-11T15:14:25.900Z,6.68
2022-10-11T15:16:53.179Z,8.23
2022-10-11T15:19:23.994Z,4.85
2022-10-11T15:21:51.627Z,7.38
2022-10-11T15:24:21.278Z,11.02
2022-10-11T15:26:48.699Z,8.40
2022-10-11T15:29:17.751Z,10.65
2022-10-11T15:31:44.887Z,5.97
2022-10-11T15:34:11.607Z,8.70
2022-10-11T15:36:38.339Z,12.02
2022-10-11T15:39:33.665Z,8.90
2022-10-11T15:42:00.469Z,7.65
2022-10-11T15:44:27.159Z,9.77
2022-10-11T15:46:54.008Z,9.93
2022-10-11T15:49:20.851Z,8.82
2022-10-11T15:51:47.644Z,8.52
2022-10-11T15:54:14.233Z,9.82
2022-10-11T15:56:40.823Z,6.38
2022-10-11T15:59:09.723Z,5.97
2022-10-11T16:01:36.333Z,9.43
2022-10-11T16:04:02.987Z,5.63
2022-10-11T16:06:29.604Z,19.95
2022-10-11T16:08:58.505Z,70.43
2022-10-11T16:11:25.087Z,60.17
2022-10-11T16:13:51.687Z,41.42
2022-10-11T16:16:18.287Z,25.30
2022-10-11T16:18:44.890Z,20.67
2022-10-11T16:21:15.523Z,9.38
2022-10-11T16:23:42.471Z,12.23
2022-10-11T16:26:13.521Z,12.52
2022-10-11T16:28:41.723Z,10.75
2022-10-11T16:31:17.960Z,6.97
2022-10-11T16:33:47.789Z,5.80
2022-10-11T16:36:36.371Z,4.80
2022-10-11T16:39:12.244Z,7.47
2022-10-11T16:41:39.635Z,5.25
2022-10-11T16:44:07.127Z,23.20
2022-10-11T16:46:34.271Z,13.15
2022-10-11T16:49:00.984Z,7.10
2022-10-11T16:51:27.685Z,8.13
2022-10-11T16:53:54.387Z,12.75
2022-10-11T16:56:23.959Z,6.57
2022-10-11T16:58:54.209Z,7.22
2022-10-11T17:01:22.245Z,8.55
2022-10-11T17:03:50.100Z,8.25
2022-10-11T17:06:17.169Z,7.45
2022-10-11T17:08:43.870Z,8.15
2022-10-11T17:11:10.842Z,9.95
2022-10-11T17:13:37.406Z,8.45
2022-10-11T17:16:14.842Z,8.60
2022-10-11T17:18:41.562Z,5.43
2022-10-11T17:21:13.261Z,5.85
2022-10-11T17:23:41.530Z,4.88
2022-10-11T17:26:14.741Z,7.03
2022-10-11T17:28:41.605Z,13.40
2022-10-11T17:31:08.717Z,12.98
2022-10-11T17:33:36.021Z,9.90
2022-10-11T17:36:21.068Z,11.07
2022-10-11T17:38:49.438Z,8.05
2022-10-11T17:41:17.534Z,4.50
2022-10-11T17:43:44.402Z,5.72
2022-10-11T17:46:14.049Z,11.63
2022-10-11T17:48:41.546Z,10.25
2022-10-11T17:51:14.034Z,7.38
2022-10-11T17:53:41.654Z,4.88
2022-10-11T17:56:15.086Z,10.45
2022-10-11T17:58:42.501Z,7.70
2022-10-11T18:01:13.437Z,5.65
2022-10-11T18:03:40.369Z,10.70
2022-10-11T18:06:09.835Z,6.60
2022-10-11T18:08:40.533Z,6.72
2022-10-11T18:11:18.301Z,7.18
2022-10-11T18:13:48.725Z,11.10
2022-10-11T18:16:19.445Z,10.40
2022-10-11T18:18:46.203Z,10.77
2022-10-11T18:21:13.056Z,8.57
2022-10-11T18:23:40.381Z,7.35
2022-10-11T18:26:20.523Z,10.15
2022-10-11T18:28:48.888Z,7.57
2022-10-11T18:31:20.772Z,10.90
2022-10-11T18:33:50.913Z,9.10
2022-10-11T18:36:22.917Z,7.15
2022-10-11T18:38:55.326Z,6.60
2022-10-11T18:41:24.346Z,6.47
2022-10-11T18:43:56.742Z,7.05
2022-10-11T18:46:23.918Z,8.93
2022-10-11T18:48:53.238Z,11.60
2022-10-11T18:51:23.694Z,8.80
2022-10-11T18:53:50.802Z,6.68
2022-10-11T18:56:22.831Z,6.28
2022-10-11T18:58:51.334Z,3.80
2022-10-11T19:01:35.233Z,4.53
2022-10-11T19:04:04.403Z,4.50
2022-10-11T19:06:41.053Z,8.80
2022-10-11T19:09:11.747Z,4.90
2022-10-11T19:11:39.776Z,6.03
2022-10-11T19:14:11.238Z,3.85
2022-10-11T19:16:41.926Z,4.88
2022-10-11T19:19:22.658Z,6.43
2022-10-11T19:21:49.894Z,4.57
2022-10-11T19:24:19.495Z,3.22
2022-10-11T19:26:47.672Z,5.88
2022-10-11T19:29:19.545Z,5.97
2022-10-11T19:31:54.961Z,6.13
2022-10-11T19:34:23.375Z,8.63
2022-10-11T19:36:50.726Z,2.92
2022-10-11T19:39:18.747Z,3.78
2022-10-11T19:41:45.993Z,5.43
2022-10-11T19:44:14.383Z,4.32
2022-10-11T19:46:58.332Z,5.38
2022-10-11T19:49:27.090Z,3.67
2022-10-11T19:51:55.182Z,8.85
2022-10-11T19:54:22.389Z,3.75
2022-10-11T19:56:49.027Z,6.47
2022-10-11T19:59:18.092Z,6.32
2022-10-11T20:01:51.044Z,12.40
2022-10-11T20:04:47.017Z,6.38
2022-10-11T20:07:06.161Z,5.82
2022-10-11T20:09:32.881Z,4.18
2022-10-11T20:11:59.466Z,9.15
2022-10-11T20:14:26.278Z,9.23
2022-10-11T20:16:53.030Z,6.93
2022-10-11T20:19:19.946Z,3.47
2022-10-11T20:21:47.577Z,5.00
2022-10-11T20:24:14.217Z,5.18
2022-10-11T20:26:40.913Z,9.07
2022-10-11T20:29:07.591Z,4.88
2022-10-11T20:31:40.538Z,6.47
2022-10-11T20:34:07.649Z,6.32
2022-10-11T20:36:35.853Z,3.13
2022-10-11T20:39:05.513Z,3.45
2022-10-11T20:41:36.829Z,7.90
2022-10-11T20:44:04.509Z,6.07
2022-10-11T20:46:35.346Z,4.30
2022-10-11T20:49:09.103Z,4.85
2022-10-11T20:51:38.514Z,5.72
2022-10-11T20:54:05.571Z,5.90
2022-10-11T20:56:33.570Z,3.90
2022-10-11T20:59:00.369Z,4.55
2022-10-11T21:01:31.761Z,9.20
2022-10-11T21:04:00.837Z,7.97
2022-10-11T21:06:29.801Z,10.95
2022-10-11T21:08:57.173Z,5.57
2022-10-11T21:11:29.175Z,4.95
2022-10-11T21:13:57.991Z,6.15
2022-10-11T21:16:24.842Z,4.50
2022-10-11T21:18:56.023Z,7.10
2022-10-11T21:21:25.948Z,9.93
2022-10-11T21:24:01.100Z,12.68
2022-10-11T21:26:28.942Z,7.45
2022-10-11T21:28:55.873Z,7.15
2022-10-11T21:31:23.468Z,5.20
2022-10-11T21:33:50.706Z,5.47
2022-10-11T21:36:20.527Z,7.18
2022-10-11T21:38:48.565Z,6.63
2022-10-11T21:41:25.287Z,3.83
2022-10-11T21:43:52.922Z,6.22
2022-10-11T21:46:36.975Z,4.78
2022-10-11T21:49:13.428Z,6.00
2022-10-11T21:51:40.110Z,5.47
2022-10-11T21:54:06.921Z,6.43
2022-10-11T21:56:35.399Z,5.93
2022-10-11T21:59:01.984Z,6.43
2022-10-11T22:01:28.590Z,10.48
2022-10-11T22:03:55.364Z,9.98
2022-10-11T22:06:23.070Z,6.88
2022-10-11T22:08:49.981Z,4.25
2022-10-11T22:11:16.923Z,9.10
2022-10-11T22:13:43.689Z,5.90
2022-10-11T22:16:12.809Z,9.57
2022-10-11T22:18:41.176Z,8.70
2022-10-11T22:21:17.169Z,5.97
2022-10-11T22:23:46.845Z,11.35
2022-10-11T22:26:17.529Z,12.18
2022-10-11T22:28:46.350Z,7.45
2022-10-11T22:31:14.505Z,6.45
2022-10-11T22:33:41.915Z,6.43
2022-10-11T22:36:11.876Z,11.02
2022-10-11T22:38:41.214Z,6.43
2022-10-11T22:41:07.877Z,8.07
2022-10-11T22:43:34.949Z,8.25
2022-10-11T22:46:01.959Z,4.57
2022-10-11T22:48:28.568Z,7.80
2022-10-11T22:50:55.186Z,5.53
2022-10-11T22:53:21.956Z,6.30
2022-10-11T22:55:49.757Z,8.43
2022-10-11T22:58:16.381Z,9.00
2022-10-11T23:00:43.585Z,6.80
2022-10-11T23:03:15.878Z,7.53
2022-10-11T23:05:42.497Z,7.15
2022-10-11T23:08:09.653Z,7.80
2022-10-11T23:10:40.227Z,4.90
2022-10-11T23:13:06.994Z,5.97
2022-10-11T23:15:33.553Z,6.25
2022-10-11T23:18:00.124Z,7.57
2022-10-11T23:20:26.725Z,6.35
2022-10-11T23:22:53.346Z,6.55
2022-10-11T23:25:20.023Z,11.15
2022-10-11T23:27:46.566Z,6.05
2022-10-11T23:30:13.622Z,8.02
2022-10-11T23:32:40.173Z,7.70
2022-10-11T23:35:07.288Z,5.15
2022-10-11T23:37:33.902Z,7.15
2022-10-11T23:40:00.546Z,6.00
2022-10-11T23:42:27.353Z,6.28
2022-10-11T23:44:54.239Z,3.75
2022-10-11T23:47:20.819Z,10.23
2022-10-11T23:49:47.373Z,4.13
2022-10-11T23:52:13.930Z,6.03
2022-10-11T23:54:40.477Z,5.00
2022-10-11T23:57:07.061Z,5.13
2022-10-11T23:59:33.673Z,4.75
